sensor_id;sensor_type;location;lat;lon;timestamp;P1;durP1;ratioP1;P2;durP2;ratioP2
44328;SDS011;30039;51.462;6.892;2022-10-19T00:01:06;7.63;;;2.45;;
44328;SDS011;30039;51.462;6.892;2022-10-19T00:03:52;5.47;;;2.33;;
44328;SDS011;30039;51.462;6.892;2022-10-19T00:06:38;4.30;;;1.90;;
44328;SDS011;30039;51.462;6.892;2022-10-19T00:09:24;4.38;;;1.85;;
44328;SDS011;30039;51.462;6.892;2022-10-19T00:12:10;8.32;;;2.50;;
44328;SDS011;30039;51.462;6.892;2022-10-19T00:14:56;4.80;;;2.40;;
44328;SDS011;30039;51.462;6.892;2022-10-19T00:17:42;7.03;;;2.13;;
44328;SDS011;30039;51.462;6.892;2022-10-19T00:20:28;7.40;;;2.33;;
44328;SDS011;30039;51.462;6.892;2022-10-19T00:23:14;6.40;;;2.17;;
44328;SDS011;30039;51.462;6.892;2022-10-19T00:25:59;4.88;;;2.65;;
44328;SDS011;30039;51.462;6.892;2022-10-19T00:28:45;7.70;;;2.30;;
44328;SDS011;30039;51.462;6.892;2022-10-19T00:31:31;6.47;;;1.90;;
44328;SDS011;30039;51.462;6.892;2022-10-19T00:34:17;7.75;;;2.40;;
44328;SDS011;30039;51.462;6.892;2022-10-19T00:37:02;5.75;;;2.30;;
44328;SDS011;30039;51.462;6.892;2022-10-19T00:39:48;5.18;;;2.10;;
44328;SDS011;30039;51.462;6.892;2022-10-19T00:42:34;4.05;;;2.17;;
44328;SDS011;30039;51.462;6.892;2022-10-19T00:45:20;6.28;;;2.25;;
44328;SDS011;30039;51.462;6.892;2022-10-19T00:48:05;4.00;;;2.03;;
44328;SDS011;30039;51.462;6.892;2022-10-19T00:50:53;5.88;;;2.42;;
44328;SDS011;30039;51.462;6.892;2022-10-19T00:53:40;9.43;;;2.47;;
44328;SDS011;30039;51.462;6.892;2022-10-19T00:56:27;9.63;;;3.03;;
44328;SDS011;30039;51.462;6.892;2022-10-19T00:59:14;6.35;;;3.00;;
44328;SDS011;30039;51.462;6.892;2022-10-19T01:02:02;6.50;;;3.35;;
44328;SDS011;30039;51.462;6.892;2022-10-19T01:04:49;7.97;;;3.08;;
44328;SDS011;30039;51.462;6.892;2022-10-19T01:07:36;6.25;;;2.90;;
44328;SDS011;30039;51.462;6.892;2022-10-19T01:10:23;5.43;;;2.58;;
44328;SDS011;30039;51.462;6.892;2022-10-19T01:13:15;6.72;;;2.50;;
44328;SDS011;30039;51.462;6.892;2022-10-19T01:16:11;12.20;;;3.20;;
44328;SDS011;30039;51.462;6.892;2022-10-19T01:22:18;9.57;;;3.45;;
44328;SDS011;30039;51.462;6.892;2022-10-19T01:30:59;10.55;;;2.80;;
44328;SDS011;30039;51.462;6.892;2022-10-19T01:33:49;7.63;;;2.60;;
44328;SDS011;30039;51.462;6.892;2022-10-19T01:42:15;5.40;;;3.00;;
44328;SDS011;30039;51.462;6.892;2022-10-19T01:45:13;8.88;;;2.67;;
44328;SDS011;30039;51.462;6.892;2022-10-19T01:48:02;6.68;;;2.92;;
44328;SDS011;30039;51.462;6.892;2022-10-19T01:50:51;6.28;;;2.80;;
44328;SDS011;30039;51.462;6.892;2022-10-19T01:53:40;10.68;;;3.42;;
44328;SDS011;30039;51.462;6.892;2022-10-19T01:56:27;7.57;;;2.80;;
44328;SDS011;30039;51.462;6.892;2022-10-19T01:59:15;7.00;;;2.78;;
44328;SDS011;30039;51.462;6.892;2022-10-19T02:02:02;6.18;;;3.08;;
44328;SDS011;30039;51.462;6.892;2022-10-19T02:04:50;7.65;;;2.60;;
44328;SDS011;30039;51.462;6.892;2022-10-19T02:07:37;10.40;;;3.55;;
44328;SDS011;30039;51.462;6.892;2022-10-19T02:10:23;5.68;;;2.10;;
44328;SDS011;30039;51.462;6.892;2022-10-19T02:13:10;7.00;;;2.60;;
44328;SDS011;30039;51.462;6.892;2022-10-19T02:15:57;7.72;;;2.63;;
44328;SDS011;30039;51.462;6.892;2022-10-19T02:18:44;7.28;;;3.08;;
44328;SDS011;30039;51.462;6.892;2022-10-19T02:21:32;8.90;;;3.08;;
44328;SDS011;30039;51.462;6.892;2022-10-19T02:24:17;5.50;;;2.67;;
44328;SDS011;30039;51.462;6.892;2022-10-19T02:27:04;6.95;;;3.10;;
44328;SDS011;30039;51.462;6.892;2022-10-19T02:29:50;7.10;;;2.80;;
44328;SDS011;30039;51.462;6.892;2022-10-19T02:32:37;6.90;;;3.08;;
44328;SDS011;30039;51.462;6.892;2022-10-19T02:35:23;10.48;;;3.03;;
44328;SDS011;30039;51.462;6.892;2022-10-19T02:38:09;8.43;;;2.80;;
44328;SDS011;30039;51.462;6.892;2022-10-19T02:43:41;7.43;;;2.63;;
44328;SDS011;30039;51.462;6.892;2022-10-19T02:46:43;6.95;;;2.47;;
44328;SDS011;30039;51.462;6.892;2022-10-19T02:49:30;5.72;;;2.90;;
44328;SDS011;30039;51.462;6.892;2022-10-19T02:52:18;8.13;;;3.05;;
44328;SDS011;30039;51.462;6.892;2022-10-19T02:55:05;7.68;;;2.83;;
44328;SDS011;30039;51.462;6.892;2022-10-19T02:57:51;10.60;;;3.05;;
44328;SDS011;30039;51.462;6.892;2022-10-19T03:00:38;6.00;;;3.00;;
44328;SDS011;30039;51.462;6.892;2022-10-19T03:03:23;7.72;;;3.15;;
44328;SDS011;30039;51.462;6.892;2022-10-19T03:06:09;7.78;;;3.40;;
44328;SDS011;30039;51.462;6.892;2022-10-19T03:08:55;8.52;;;3.08;;
44328;SDS011;30039;51.462;6.892;2022-10-19T03:11:41;12.25;;;3.78;;
44328;SDS011;30039;51.462;6.892;2022-10-19T03:14:26;7.65;;;3.35;;
44328;SDS011;30039;51.462;6.892;2022-10-19T03:17:12;10.35;;;3.53;;
44328;SDS011;30039;51.462;6.892;2022-10-19T03:19:58;14.93;;;4.05;;
44328;SDS011;30039;51.462;6.892;2022-10-19T03:22:43;7.70;;;3.47;;
44328;SDS011;30039;51.462;6.892;2022-10-19T03:25:29;10.77;;;3.35;;
44328;SDS011;30039;51.462;6.892;2022-10-19T03:28:15;9.43;;;4.00;;
44328;SDS011;30039;51.462;6.892;2022-10-19T03:31:01;6.22;;;3.53;;
44328;SDS011;30039;51.462;6.892;2022-10-19T03:33:46;8.07;;;3.60;;
44328;SDS011;30039;51.462;6.892;2022-10-19T03:36:33;11.45;;;4.38;;
44328;SDS011;30039;51.462;6.892;2022-10-19T03:39:19;13.02;;;4.25;;
44328;SDS011;30039;51.462;6.892;2022-10-19T03:42:04;8.35;;;4.15;;
44328;SDS011;30039;51.462;6.892;2022-10-19T03:44:50;10.20;;;4.82;;
44328;SDS011;30039;51.462;6.892;2022-10-19T03:47:36;13.20;;;5.25;;
44328;SDS011;30039;51.462;6.892;2022-10-19T03:50:22;13.60;;;5.10;;
44328;SDS011;30039;51.462;6.892;2022-10-19T03:53:07;9.10;;;5.18;;
44328;SDS011;30039;51.462;6.892;2022-10-19T03:55:58;9.85;;;4.78;;
44328;SDS011;30039;51.462;6.892;2022-10-19T03:58:46;13.20;;;5.53;;
44328;SDS011;30039;51.462;6.892;2022-10-19T04:01:36;7.50;;;4.30;;
44328;SDS011;30039;51.462;6.892;2022-10-19T04:04:22;9.32;;;4.45;;
44328;SDS011;30039;51.462;6.892;2022-10-19T04:07:07;16.75;;;5.07;;
44328;SDS011;30039;51.462;6.892;2022-10-19T04:09:53;9.25;;;4.90;;
44328;SDS011;30039;51.462;6.892;2022-10-19T04:12:39;10.65;;;4.75;;
44328;SDS011;30039;51.462;6.892;2022-10-19T04:15:24;11.00;;;5.03;;
44328;SDS011;30039;51.462;6.892;2022-10-19T04:18:10;10.10;;;4.75;;
44328;SDS011;30039;51.462;6.892;2022-10-19T04:20:56;6.75;;;4.13;;
44328;SDS011;30039;51.462;6.892;2022-10-19T04:23:42;14.95;;;5.03;;
44328;SDS011;30039;51.462;6.892;2022-10-19T04:26:28;8.68;;;4.60;;
44328;SDS011;30039;51.462;6.892;2022-10-19T04:29:14;8.45;;;4.10;;
44328;SDS011;30039;51.462;6.892;2022-10-19T04:32:00;11.15;;;5.00;;
44328;SDS011;30039;51.462;6.892;2022-10-19T04:34:46;10.57;;;4.30;;
44328;SDS011;30039;51.462;6.892;2022-10-19T04:37:31;8.00;;;4.90;;
44328;SDS011;30039;51.462;6.892;2022-10-19T04:40:17;10.93;;;4.93;;
44328;SDS011;30039;51.462;6.892;2022-10-19T04:43:03;9.73;;;3.95;;
44328;SDS011;30039;51.462;6.892;2022-10-19T04:45:50;7.80;;;4.43;;
44328;SDS011;30039;51.462;6.892;2022-10-19T04:48:36;9.68;;;4.93;;
44328;SDS011;30039;51.462;6.892;2022-10-19T04:51:22;8.15;;;4.60;;
44328;SDS011;30039;51.462;6.892;2022-10-19T04:54:08;7.18;;;4.78;;
44328;SDS011;30039;51.462;6.892;2022-10-19T04:56:54;12.20;;;4.55;;
44328;SDS011;30039;51.462;6.892;2022-10-19T04:59:39;9.25;;;4.65;;
44328;SDS011;30039;51.462;6.892;2022-10-19T05:02:25;12.68;;;5.35;;
44328;SDS011;30039;51.462;6.892;2022-10-19T05:05:11;11.13;;;5.53;;
44328;SDS011;30039;51.462;6.892;2022-10-19T05:07:57;8.45;;;4.88;;
44328;SDS011;30039;51.462;6.892;2022-10-19T05:10:43;12.57;;;5.13;;
44328;SDS011;30039;51.462;6.892;2022-10-19T05:13:29;12.98;;;4.97;;
44328;SDS011;30039;51.462;6.892;2022-10-19T05:16:17;13.55;;;5.38;;
44328;SDS011;30039;51.462;6.892;2022-10-19T05:19:03;11.13;;;5.28;;
44328;SDS011;30039;51.462;6.892;2022-10-19T05:21:49;11.45;;;5.55;;
44328;SDS011;30039;51.462;6.892;2022-10-19T05:24:34;9.63;;;4.90;;
44328;SDS011;30039;51.462;6.892;2022-10-19T05:27:20;11.65;;;5.50;;
44328;SDS011;30039;51.462;6.892;2022-10-19T05:30:06;14.02;;;5.72;;
44328;SDS011;30039;51.462;6.892;2022-10-19T05:32:53;14.98;;;5.65;;
44328;SDS011;30039;51.462;6.892;2022-10-19T05:35:38;8.30;;;5.38;;
44328;SDS011;30039;51.462;6.892;2022-10-19T05:38:25;14.55;;;5.70;;
44328;SDS011;30039;51.462;6.892;2022-10-19T05:41:13;10.88;;;5.68;;
44328;SDS011;30039;51.462;6.892;2022-10-19T05:44:01;12.95;;;5.65;;
44328;SDS011;30039;51.462;6.892;2022-10-19T05:46:48;6.57;;;4.85;;
44328;SDS011;30039;51.462;6.892;2022-10-19T05:49:35;9.68;;;4.85;;
44328;SDS011;30039;51.462;6.892;2022-10-19T05:52:20;13.18;;;5.05;;
44328;SDS011;30039;51.462;6.892;2022-10-19T05:55:06;9.98;;;4.82;;
44328;SDS011;30039;51.462;6.892;2022-10-19T05:57:53;10.98;;;5.15;;
44328;SDS011;30039;51.462;6.892;2022-10-19T06:00:39;10.27;;;4.70;;
44328;SDS011;30039;51.462;6.892;2022-10-19T06:03:24;11.52;;;5.10;;
44328;SDS011;30039;51.462;6.892;2022-10-19T06:06:11;10.50;;;5.30;;
44328;SDS011;30039;51.462;6.892;2022-10-19T06:08:57;10.55;;;4.97;;
44328;SDS011;30039;51.462;6.892;2022-10-19T06:11:44;10.13;;;4.70;;
44328;SDS011;30039;51.462;6.892;2022-10-19T06:14:30;11.05;;;5.45;;
44328;SDS011;30039;51.462;6.892;2022-10-19T06:17:16;8.25;;;4.28;;
44328;SDS011;30039;51.462;6.892;2022-10-19T06:20:02;12.18;;;5.13;;
44328;SDS011;30039;51.462;6.892;2022-10-19T06:22:50;15.48;;;5.25;;
44328;SDS011;30039;51.462;6.892;2022-10-19T06:25:36;9.65;;;4.88;;
44328;SDS011;30039;51.462;6.892;2022-10-19T06:28:22;11.02;;;4.82;;
44328;SDS011;30039;51.462;6.892;2022-10-19T06:31:09;13.35;;;5.63;;
44328;SDS011;30039;51.462;6.892;2022-10-19T06:33:55;8.63;;;4.93;;
44328;SDS011;30039;51.462;6.892;2022-10-19T06:36:40;10.07;;;6.22;;
44328;SDS011;30039;51.462;6.892;2022-10-19T06:39:26;19.33;;;7.30;;
44328;SDS011;30039;51.462;6.892;2022-10-19T06:42:12;8.40;;;4.97;;
44328;SDS011;30039;51.462;6.892;2022-10-19T06:44:58;7.90;;;4.90;;
44328;SDS011;30039;51.462;6.892;2022-10-19T06:47:43;8.20;;;4.57;;
44328;SDS011;30039;51.462;6.892;2022-10-19T06:50:29;10.10;;;4.70;;
44328;SDS011;30039;51.462;6.892;2022-10-19T06:53:16;9.77;;;5.35;;
44328;SDS011;30039;51.462;6.892;2022-10-19T06:56:03;11.77;;;5.40;;
44328;SDS011;30039;51.462;6.892;2022-10-19T06:58:50;10.80;;;5.97;;
44328;SDS011;30039;51.462;6.892;2022-10-19T07:01:36;10.75;;;5.07;;
44328;SDS011;30039;51.462;6.892;2022-10-19T07:04:21;10.93;;;5.63;;
44328;SDS011;30039;51.462;6.892;2022-10-19T07:07:07;14.38;;;6.07;;
44328;SDS011;30039;51.462;6.892;2022-10-19T07:09:53;8.63;;;5.28;;
44328;SDS011;30039;51.462;6.892;2022-10-19T07:12:40;8.98;;;5.35;;
44328;SDS011;30039;51.462;6.892;2022-10-19T07:15:26;9.45;;;5.43;;
44328;SDS011;30039;51.462;6.892;2022-10-19T07:18:12;12.45;;;6.22;;
44328;SDS011;30039;51.462;6.892;2022-10-19T07:20:58;10.60;;;5.68;;
44328;SDS011;30039;51.462;6.892;2022-10-19T07:23:45;12.45;;;5.47;;
44328;SDS011;30039;51.462;6.892;2022-10-19T07:26:31;9.65;;;5.30;;
44328;SDS011;30039;51.462;6.892;2022-10-19T07:29:18;10.95;;;5.50;;
44328;SDS011;30039;51.462;6.892;2022-10-19T07:32:03;11.40;;;4.93;;
44328;SDS011;30039;51.462;6.892;2022-10-19T07:34:49;16.15;;;6.32;;
44328;SDS011;30039;51.462;6.892;2022-10-19T07:37:35;11.85;;;5.60;;
44328;SDS011;30039;51.462;6.892;2022-10-19T07:40:21;10.07;;;5.35;;
44328;SDS011;30039;51.462;6.892;2022-10-19T07:43:06;14.05;;;6.22;;
44328;SDS011;30039;51.462;6.892;2022-10-19T07:46:01;12.65;;;5.40;;
44328;SDS011;30039;51.462;6.892;2022-10-19T07:48:48;11.50;;;5.70;;
44328;SDS011;30039;51.462;6.892;2022-10-19T07:51:34;13.90;;;6.90;;
44328;SDS011;30039;51.462;6.892;2022-10-19T07:54:20;15.05;;;6.03;;
44328;SDS011;30039;51.462;6.892;2022-10-19T07:57:07;13.25;;;5.60;;
44328;SDS011;30039;51.462;6.892;2022-10-19T07:59:55;12.88;;;5.57;;
44328;SDS011;30039;51.462;6.892;2022-10-19T08:02:41;10.32;;;5.88;;
44328;SDS011;30039;51.462;6.892;2022-10-19T08:05:27;10.52;;;5.50;;
44328;SDS011;30039;51.462;6.892;2022-10-19T08:08:12;9.90;;;5.47;;
44328;SDS011;30039;51.462;6.892;2022-10-19T08:11:20;11.98;;;5.18;;
44328;SDS011;30039;51.462;6.892;2022-10-19T08:14:04;8.23;;;4.65;;
44328;SDS011;30039;51.462;6.892;2022-10-19T08:16:50;11.70;;;5.55;;
44328;SDS011;30039;51.462;6.892;2022-10-19T08:19:35;12.93;;;5.00;;
44328;SDS011;30039;51.462;6.892;2022-10-19T08:22:25;12.45;;;5.65;;
44328;SDS011;30039;51.462;6.892;2022-10-19T08:25:11;9.07;;;4.65;;
44328;SDS011;30039;51.462;6.892;2022-10-19T08:27:57;11.85;;;5.15;;
44328;SDS011;30039;51.462;6.892;2022-10-19T08:30:45;16.17;;;5.72;;
44328;SDS011;30039;51.462;6.892;2022-10-19T08:33:31;13.43;;;5.25;;
44328;SDS011;30039;51.462;6.892;2022-10-19T08:36:17;12.68;;;5.63;;
44328;SDS011;30039;51.462;6.892;2022-10-19T08:39:05;9.85;;;5.15;;
44328;SDS011;30039;51.462;6.892;2022-10-19T08:51:17;6.50;;;3.97;;
44328;SDS011;30039;51.462;6.892;2022-10-19T08:54:04;11.18;;;4.55;;
44328;SDS011;30039;51.462;6.892;2022-10-19T09:05:38;9.55;;;4.65;;
44328;SDS011;30039;51.462;6.892;2022-10-19T09:08:26;10.75;;;4.20;;
44328;SDS011;30039;51.462;6.892;2022-10-19T09:11:12;8.27;;;3.80;;
44328;SDS011;30039;51.462;6.892;2022-10-19T09:14:01;7.68;;;3.75;;
44328;SDS011;30039;51.462;6.892;2022-10-19T09:16:49;8.10;;;3.75;;
44328;SDS011;30039;51.462;6.892;2022-10-19T09:19:35;11.35;;;4.50;;
44328;SDS011;30039;51.462;6.892;2022-10-19T09:33:50;8.90;;;3.35;;
44328;SDS011;30039;51.462;6.892;2022-10-19T09:36:39;8.48;;;3.40;;
44328;SDS011;30039;51.462;6.892;2022-10-19T09:39:27;6.10;;;2.97;;
44328;SDS011;30039;51.462;6.892;2022-10-19T09:45:28;8.80;;;3.38;;
44328;SDS011;30039;51.462;6.892;2022-10-19T09:51:16;7.10;;;2.13;;
44328;SDS011;30039;51.462;6.892;2022-10-19T09:54:01;5.28;;;1.80;;
44328;SDS011;30039;51.462;6.892;2022-10-19T09:56:51;6.88;;;2.00;;
44328;SDS011;30039;51.462;6.892;2022-10-19T09:59:37;3.80;;;1.42;;
44328;SDS011;30039;51.462;6.892;2022-10-19T10:02:30;4.88;;;1.38;;
44328;SDS011;30039;51.462;6.892;2022-10-19T10:05:15;6.80;;;1.23;;
44328;SDS011;30039;51.462;6.892;2022-10-19T10:08:02;8.13;;;1.30;;
44328;SDS011;30039;51.462;6.892;2022-10-19T10:11:22;4.22;;;1.10;;
44328;SDS011;30039;51.462;6.892;2022-10-19T10:14:04;2.45;;;1.08;;
44328;SDS011;30039;51.462;6.892;2022-10-19T10:16:55;4.22;;;1.20;;
44328;SDS011;30039;51.462;6.892;2022-10-19T10:20:00;8.10;;;1.33;;
44328;SDS011;30039;51.462;6.892;2022-10-19T10:22:54;2.53;;;1.13;;
44328;SDS011;30039;51.462;6.892;2022-10-19T10:25:42;4.70;;;1.17;;
44328;SDS011;30039;51.462;6.892;2022-10-19T10:28:33;4.50;;;1.30;;
44328;SDS011;30039;51.462;6.892;2022-10-19T10:31:30;4.28;;;1.40;;
44328;SDS011;30039;51.462;6.892;2022-10-19T10:34:17;4.15;;;1.05;;
44328;SDS011;30039;51.462;6.892;2022-10-19T10:37:05;3.33;;;0.88;;
44328;SDS011;30039;51.462;6.892;2022-10-19T10:39:51;3.63;;;1.40;;
44328;SDS011;30039;51.462;6.892;2022-10-19T10:42:41;2.50;;;1.13;;
44328;SDS011;30039;51.462;6.892;2022-10-19T10:45:29;4.05;;;1.33;;
44328;SDS011;30039;51.462;6.892;2022-10-19T10:51:01;4.00;;;1.17;;
44328;SDS011;30039;51.462;6.892;2022-10-19T10:53:47;3.08;;;0.85;;
44328;SDS011;30039;51.462;6.892;2022-10-19T10:56:32;2.58;;;0.93;;
44328;SDS011;30039;51.462;6.892;2022-10-19T10:59:25;3.53;;;1.20;;
44328;SDS011;30039;51.462;6.892;2022-10-19T11:05:02;2.58;;;1.20;;
44328;SDS011;30039;51.462;6.892;2022-10-19T11:07:52;2.17;;;0.70;;
44328;SDS011;30039;51.462;6.892;2022-10-19T11:10:41;2.92;;;1.08;;
44328;SDS011;30039;51.462;6.892;2022-10-19T11:16:23;4.15;;;0.98;;
44328;SDS011;30039;51.462;6.892;2022-10-19T11:27:52;4.00;;;1.20;;
44328;SDS011;30039;51.462;6.892;2022-10-19T11:33:44;4.07;;;1.48;;
44328;SDS011;30039;51.462;6.892;2022-10-19T11:39:28;3.78;;;1.58;;
44328;SDS011;30039;51.462;6.892;2022-10-19T12:11:54;4.88;;;1.30;;
44328;SDS011;30039;51.462;6.892;2022-10-19T12:14:43;4.18;;;1.20;;
44328;SDS011;30039;51.462;6.892;2022-10-19T12:17:31;3.63;;;1.20;;
44328;SDS011;30039;51.462;6.892;2022-10-19T12:20:20;4.72;;;1.08;;
44328;SDS011;30039;51.462;6.892;2022-10-19T12:23:20;5.90;;;1.20;;
44328;SDS011;30039;51.462;6.892;2022-10-19T12:26:08;5.63;;;1.50;;
44328;SDS011;30039;51.462;6.892;2022-10-19T12:28:55;3.60;;;1.13;;
44328;SDS011;30039;51.462;6.892;2022-10-19T12:31:42;3.42;;;1.38;;
44328;SDS011;30039;51.462;6.892;2022-10-19T12:40:22;2.92;;;1.23;;
44328;SDS011;30039;51.462;6.892;2022-10-19T12:52:03;6.13;;;1.52;;
44328;SDS011;30039;51.462;6.892;2022-10-19T12:54:49;5.63;;;1.40;;
44328;SDS011;30039;51.462;6.892;2022-10-19T12:57:34;5.80;;;1.63;;
44328;SDS011;30039;51.462;6.892;2022-10-19T13:00:22;8.20;;;1.80;;
44328;SDS011;30039;51.462;6.892;2022-10-19T13:03:15;5.00;;;1.52;;
44328;SDS011;30039;51.462;6.892;2022-10-19T13:06:12;6.82;;;1.50;;
44328;SDS011;30039;51.462;6.892;2022-10-19T13:09:01;5.03;;;1.30;;
44328;SDS011;30039;51.462;6.892;2022-10-19T13:12:39;3.30;;;0.90;;
44328;SDS011;30039;51.462;6.892;2022-10-19T13:14:59;2.05;;;1.00;;
44328;SDS011;30039;51.462;6.892;2022-10-19T13:17:45;6.07;;;1.27;;
44328;SDS011;30039;51.462;6.892;2022-10-19T14:00:51;4.57;;;1.20;;
44328;SDS011;30039;51.462;6.892;2022-10-19T14:09:54;4.22;;;1.30;;
44328;SDS011;30039;51.462;6.892;2022-10-19T14:12:44;4.65;;;1.50;;
44328;SDS011;30039;51.462;6.892;2022-10-19T14:15:31;7.40;;;1.13;;
44328;SDS011;30039;51.462;6.892;2022-10-19T14:18:35;5.28;;;1.40;;
44328;SDS011;30039;51.462;6.892;2022-10-19T14:24:20;4.63;;;1.30;;
44328;SDS011;30039;51.462;6.892;2022-10-19T14:27:14;3.60;;;1.23;;
44328;SDS011;30039;51.462;6.892;2022-10-19T14:30:01;3.40;;;1.40;;
44328;SDS011;30039;51.462;6.892;2022-10-19T14:32:47;3.13;;;0.90;;
44328;SDS011;30039;51.462;6.892;2022-10-19T14:35:34;4.32;;;1.33;;
44328;SDS011;30039;51.462;6.892;2022-10-19T14:38:23;3.05;;;1.38;;
44328;SDS011;30039;51.462;6.892;2022-10-19T14:44:44;3.67;;;1.35;;
44328;SDS011;30039;51.462;6.892;2022-10-19T14:47:24;6.75;;;1.50;;
44328;SDS011;30039;51.462;6.892;2022-10-19T14:50:14;4.15;;;1.67;;
44328;SDS011;30039;51.462;6.892;2022-10-19T14:53:02;1.95;;;1.13;;
44328;SDS011;30039;51.462;6.892;2022-10-19T14:55:49;2.95;;;1.30;;
44328;SDS011;30039;51.462;6.892;2022-10-19T14:58:58;7.10;;;1.70;;
44328;SDS011;30039;51.462;6.892;2022-10-19T15:01:47;4.07;;;1.48;;
44328;SDS011;30039;51.462;6.892;2022-10-19T15:04:34;7.07;;;1.40;;
44328;SDS011;30039;51.462;6.892;2022-10-19T15:10:20;4.25;;;1.60;;
44328;SDS011;30039;51.462;6.892;2022-10-19T15:13:07;3.60;;;1.88;;
44328;SDS011;30039;51.462;6.892;2022-10-19T15:15:58;4.57;;;1.55;;
44328;SDS011;30039;51.462;6.892;2022-10-19T15:18:43;2.85;;;1.10;;
44328;SDS011;30039;51.462;6.892;2022-10-19T15:21:29;6.00;;;1.48;;
44328;SDS011;30039;51.462;6.892;2022-10-19T15:24:26;4.32;;;1.48;;
44328;SDS011;30039;51.462;6.892;2022-10-19T15:27:19;5.63;;;1.83;;
44328;SDS011;30039;51.462;6.892;2022-10-19T15:30:28;3.50;;;1.43;;
44328;SDS011;30039;51.462;6.892;2022-10-19T15:33:13;4.43;;;1.27;;
44328;SDS011;30039;51.462;6.892;2022-10-19T15:36:06;2.88;;;1.48;;
44328;SDS011;30039;51.462;6.892;2022-10-19T15:39:00;3.20;;;1.27;;
44328;SDS011;30039;51.462;6.892;2022-10-19T15:41:45;5.55;;;1.73;;
44328;SDS011;30039;51.462;6.892;2022-10-19T15:44:32;5.07;;;1.48;;
44328;SDS011;30039;51.462;6.892;2022-10-19T15:47:20;2.78;;;1.38;;
44328;SDS011;30039;51.462;6.892;2022-10-19T15:50:06;4.35;;;1.20;;
44328;SDS011;30039;51.462;6.892;2022-10-19T15:53:12;3.40;;;1.15;;
44328;SDS011;30039;51.462;6.892;2022-10-19T15:55:58;4.72;;;1.20;;
44328;SDS011;30039;51.462;6.892;2022-10-19T15:58:46;6.13;;;1.33;;
44328;SDS011;30039;51.462;6.892;2022-10-19T16:01:32;1.98;;;1.20;;
44328;SDS011;30039;51.462;6.892;2022-10-19T16:04:21;4.40;;;1.48;;
44328;SDS011;30039;51.462;6.892;2022-10-19T16:07:08;5.75;;;1.10;;
44328;SDS011;30039;51.462;6.892;2022-10-19T16:09:54;2.40;;;1.27;;
44328;SDS011;30039;51.462;6.892;2022-10-19T16:12:40;4.22;;;1.42;;
44328;SDS011;30039;51.462;6.892;2022-10-19T16:15:26;3.28;;;1.52;;
44328;SDS011;30039;51.462;6.892;2022-10-19T16:18:11;4.28;;;1.00;;
44328;SDS011;30039;51.462;6.892;2022-10-19T16:20:57;4.78;;;1.60;;
44328;SDS011;30039;51.462;6.892;2022-10-19T16:23:43;3.63;;;1.48;;
44328;SDS011;30039;51.462;6.892;2022-10-19T16:26:29;3.10;;;1.20;;
44328;SDS011;30039;51.462;6.892;2022-10-19T16:29:16;5.57;;;1.52;;
44328;SDS011;30039;51.462;6.892;2022-10-19T16:32:02;2.92;;;1.30;;
44328;SDS011;30039;51.462;6.892;2022-10-19T16:34:48;3.30;;;1.40;;
44328;SDS011;30039;51.462;6.892;2022-10-19T16:37:33;4.32;;;1.35;;
44328;SDS011;30039;51.462;6.892;2022-10-19T16:40:19;3.45;;;1.55;;
44328;SDS011;30039;51.462;6.892;2022-10-19T16:43:05;4.72;;;1.20;;
44328;SDS011;30039;51.462;6.892;2022-10-19T16:45:50;2.42;;;1.00;;
44328;SDS011;30039;51.462;6.892;2022-10-19T16:48:37;5.00;;;1.48;;
44328;SDS011;30039;51.462;6.892;2022-10-19T16:51:33;2.97;;;1.38;;
44328;SDS011;30039;51.462;6.892;2022-10-19T16:54:20;3.28;;;1.48;;
44328;SDS011;30039;51.462;6.892;2022-10-19T16:57:06;3.92;;;1.38;;
44328;SDS011;30039;51.462;6.892;2022-10-19T16:59:52;2.85;;;1.38;;
44328;SDS011;30039;51.462;6.892;2022-10-19T17:02:38;6.30;;;2.08;;
44328;SDS011;30039;51.462;6.892;2022-10-19T17:05:24;3.15;;;1.40;;
44328;SDS011;30039;51.462;6.892;2022-10-19T17:08:10;6.68;;;1.50;;
44328;SDS011;30039;51.462;6.892;2022-10-19T17:10:56;2.50;;;1.33;;
44328;SDS011;30039;51.462;6.892;2022-10-19T17:13:42;4.20;;;1.67;;
44328;SDS011;30039;51.462;6.892;2022-10-19T17:16:29;6.50;;;1.65;;
44328;SDS011;30039;51.462;6.892;2022-10-19T17:19:15;4.78;;;1.73;;
44328;SDS011;30039;51.462;6.892;2022-10-19T17:22:01;3.47;;;1.50;;
44328;SDS011;30039;51.462;6.892;2022-10-19T17:24:47;4.25;;;1.33;;
44328;SDS011;30039;51.462;6.892;2022-10-19T17:27:33;2.03;;;1.27;;
44328;SDS011;30039;51.462;6.892;2022-10-19T17:30:19;4.60;;;1.73;;
44328;SDS011;30039;51.462;6.892;2022-10-19T17:33:04;3.80;;;1.60;;
44328;SDS011;30039;51.462;6.892;2022-10-19T17:35:50;6.45;;;1.75;;
44328;SDS011;30039;51.462;6.892;2022-10-19T17:38:36;7.30;;;1.90;;
44328;SDS011;30039;51.462;6.892;2022-10-19T17:41:22;4.47;;;1.65;;
44328;SDS011;30039;51.462;6.892;2022-10-19T17:44:08;4.50;;;1.73;;
44328;SDS011;30039;51.462;6.892;2022-10-19T17:46:54;3.58;;;1.60;;
44328;SDS011;30039;51.462;6.892;2022-10-19T17:49:40;4.32;;;1.90;;
44328;SDS011;30039;51.462;6.892;2022-10-19T17:52:26;5.50;;;2.08;;
44328;SDS011;30039;51.462;6.892;2022-10-19T17:55:12;8.75;;;2.13;;
44328;SDS011;30039;51.462;6.892;2022-10-19T17:57:58;3.55;;;1.70;;
44328;SDS011;30039;51.462;6.892;2022-10-19T18:00:43;5.43;;;1.60;;
44328;SDS011;30039;51.462;6.892;2022-10-19T18:03:30;4.32;;;1.80;;
44328;SDS011;30039;51.462;6.892;2022-10-19T18:06:17;2.85;;;1.50;;
44328;SDS011;30039;51.462;6.892;2022-10-19T18:09:04;3.03;;;1.77;;
44328;SDS011;30039;51.462;6.892;2022-10-19T18:11:50;6.55;;;2.38;;
44328;SDS011;30039;51.462;6.892;2022-10-19T18:14:35;3.80;;;2.00;;
44328;SDS011;30039;51.462;6.892;2022-10-19T18:17:21;6.07;;;2.55;;
44328;SDS011;30039;51.462;6.892;2022-10-19T18:20:07;3.95;;;2.33;;
44328;SDS011;30039;51.462;6.892;2022-10-19T18:22:53;6.80;;;2.20;;
44328;SDS011;30039;51.462;6.892;2022-10-19T18:25:39;4.80;;;2.33;;
44328;SDS011;30039;51.462;6.892;2022-10-19T18:28:24;3.60;;;2.30;;
44328;SDS011;30039;51.462;6.892;2022-10-19T18:31:14;3.92;;;2.10;;
44328;SDS011;30039;51.462;6.892;2022-10-19T18:34:02;4.65;;;2.10;;
44328;SDS011;30039;51.462;6.892;2022-10-19T18:36:48;5.10;;;2.25;;
44328;SDS011;30039;51.462;6.892;2022-10-19T18:39:34;7.20;;;2.50;;
44328;SDS011;30039;51.462;6.892;2022-10-19T18:42:21;6.07;;;2.45;;
44328;SDS011;30039;51.462;6.892;2022-10-19T18:45:06;5.47;;;2.13;;
44328;SDS011;30039;51.462;6.892;2022-10-19T18:47:52;5.05;;;2.42;;
44328;SDS011;30039;51.462;6.892;2022-10-19T18:50:38;4.57;;;2.50;;
44328;SDS011;30039;51.462;6.892;2022-10-19T18:53:24;6.82;;;2.33;;
44328;SDS011;30039;51.462;6.892;2022-10-19T18:56:10;6.25;;;2.47;;
44328;SDS011;30039;51.462;6.892;2022-10-19T18:58:56;4.40;;;2.58;;
44328;SDS011;30039;51.462;6.892;2022-10-19T19:01:41;4.30;;;2.17;;
44328;SDS011;30039;51.462;6.892;2022-10-19T19:04:27;4.75;;;2.53;;
44328;SDS011;30039;51.462;6.892;2022-10-19T19:07:13;4.05;;;2.50;;
44328;SDS011;30039;51.462;6.892;2022-10-19T19:09:59;3.33;;;2.30;;
44328;SDS011;30039;51.462;6.892;2022-10-19T19:12:46;5.45;;;2.30;;
44328;SDS011;30039;51.462;6.892;2022-10-19T19:15:33;4.05;;;2.00;;
44328;SDS011;30039;51.462;6.892;2022-10-19T19:18:18;4.35;;;2.60;;
44328;SDS011;30039;51.462;6.892;2022-10-19T19:21:09;4.97;;;2.55;;
44328;SDS011;30039;51.462;6.892;2022-10-19T19:23:59;8.07;;;3.00;;
44328;SDS011;30039;51.462;6.892;2022-10-19T19:26:46;5.60;;;2.63;;
44328;SDS011;30039;51.462;6.892;2022-10-19T19:29:32;6.38;;;2.55;;
44328;SDS011;30039;51.462;6.892;2022-10-19T19:32:18;3.85;;;2.42;;
44328;SDS011;30039;51.462;6.892;2022-10-19T19:35:04;4.82;;;3.22;;
44328;SDS011;30039;51.462;6.892;2022-10-19T19:37:50;5.47;;;2.55;;
44328;SDS011;30039;51.462;6.892;2022-10-19T19:40:42;3.88;;;2.50;;
44328;SDS011;30039;51.462;6.892;2022-10-19T19:43:29;5.25;;;2.70;;